createdAt,value
2023-01-28T00:01:57.072Z,102497.50
2023-01-28T00:04:24.295Z,102491.91
2023-01-28T00:06:51.671Z,102489.09
2023-01-28T00:09:18.641Z,102488.09
2023-01-28T00:11:45.620Z,102487.63
2023-01-28T00:14:12.775Z,102477.19
2023-01-28T00:16:39.817Z,102477.31
2023-01-28T00:19:07.247Z,102485.47
2023-01-28T00:21:34.666Z,102486.13
2023-01-28T00:24:01.744Z,102477.19
2023-01-28T00:26:28.615Z,102479.50
2023-01-28T00:28:55.444Z,102474.44
2023-01-28T00:31:24.709Z,102474.31
2023-01-28T00:33:52.408Z,102472.47
2023-01-28T00:36:21.784Z,102469.69
2023-01-28T00:38:53.778Z,102469.41
2023-01-28T00:41:22.238Z,102477.00
2023-01-28T00:43:51.418Z,102470.91
2023-01-28T00:46:19.044Z,102481.44
2023-01-28T00:48:47.548Z,102483.06
2023-01-28T00:51:17.593Z,102478.63
2023-01-28T00:53:44.561Z,102496.19
2023-01-28T00:56:14.520Z,102487.22
2023-01-28T00:58:41.900Z,102478.91
2023-01-28T01:01:12.680Z,102486.81
2023-01-28T01:03:40.595Z,102483.25
2023-01-28T01:06:09.029Z,102482.13
2023-01-28T01:08:36.196Z,102483.53
2023-01-28T01:11:03.950Z,102483.13
2023-01-28T01:13:32.822Z,102489.91
2023-01-28T01:16:27.685Z,102487.28
2023-01-28T01:18:55.783Z,102485.00
2023-01-28T01:21:25.152Z,102496.59
2023-01-28T01:23:52.725Z,102514.34
2023-01-28T01:26:19.874Z,102506.09
2023-01-28T01:28:46.849Z,102502.97
2023-01-28T01:31:15.579Z,102507.66
2023-01-28T01:33:43.556Z,102510.84
2023-01-28T01:36:11.805Z,102509.94
2023-01-28T01:38:38.890Z,102504.31
2023-01-28T01:41:06.278Z,102512.72
2023-01-28T01:43:46.964Z,102506.50
2023-01-28T01:46:14.699Z,102509.81
2023-01-28T01:48:41.666Z,102509.53
2023-01-28T01:51:11.882Z,102508.97
2023-01-28T01:53:44.213Z,102507.00
2023-01-28T01:56:14.951Z,102508.47
2023-01-28T01:58:43.990Z,102499.69
2023-01-28T02:01:11.134Z,102494.44
2023-01-28T02:04:05.801Z,102503.38
2023-01-28T02:06:33.432Z,102498.06
2023-01-28T02:09:02.415Z,102512.66
2023-01-28T02:11:32.814Z,102503.78
2023-01-28T02:14:03.001Z,102493.19
2023-01-28T02:16:31.447Z,102498.34
2023-01-28T02:18:58.232Z,102494.09
2023-01-28T02:21:48.225Z,102494.47
2023-01-28T02:24:36.977Z,102497.38
2023-01-28T02:27:11.486Z,102498.84
2023-01-28T02:29:46.420Z,102494.41
2023-01-28T02:32:34.433Z,102501.00
2023-01-28T02:35:19.542Z,102495.53
2023-01-28T02:38:00.942Z,102487.53
2023-01-28T02:40:54.678Z,102494.34
2023-01-28T02:43:40.570Z,102500.03
2023-01-28T02:46:44.310Z,102507.41
2023-01-28T02:49:31.022Z,102498.47
2023-01-28T02:52:46.469Z,102488.88
2023-01-28T02:55:35.610Z,102502.16
2023-01-28T02:58:08.787Z,102507.78
2023-01-28T03:00:45.091Z,102501.25
2023-01-28T03:03:25.636Z,102501.44
2023-01-28T03:06:04.292Z,102506.66
2023-01-28T03:08:58.652Z,102500.38
2023-01-28T03:11:45.346Z,102509.72
2023-01-28T03:14:30.808Z,102524.91
2023-01-28T03:17:18.964Z,102524.50
2023-01-28T03:20:04.763Z,102522.81
2023-01-28T03:22:53.465Z,102531.22
2023-01-28T03:25:40.481Z,102540.72
2023-01-28T03:28:31.368Z,102532.94
2023-01-28T03:31:27.240Z,102530.88
2023-01-28T03:34:15.712Z,102540.03
2023-01-28T03:37:09.930Z,102540.31
2023-01-28T03:39:46.505Z,102540.59
2023-01-28T03:42:15.235Z,102541.88
2023-01-28T03:44:56.132Z,102541.75
2023-01-28T03:47:26.334Z,102546.94
2023-01-28T03:49:55.552Z,102546.75
2023-01-28T03:52:32.188Z,102552.66
2023-01-28T03:55:15.082Z,102552.59
2023-01-28T03:57:44.831Z,102555.28
2023-01-28T04:00:13.184Z,102546.28
2023-01-28T04:02:42.722Z,102550.56
2023-01-28T04:05:15.954Z,102553.44
2023-01-28T04:07:47.111Z,102546.06
2023-01-28T04:10:46.210Z,102544.91
2023-01-28T04:13:24.829Z,102542.91
2023-01-28T04:15:52.853Z,102546.44
2023-01-28T04:18:21.159Z,102544.78
2023-01-28T04:20:50.257Z,102545.91
2023-01-28T04:23:18.065Z,102547.69
2023-01-28T04:25:45.325Z,102554.41
2023-01-28T04:28:12.255Z,102553.41
2023-01-28T04:30:39.153Z,102560.78
2023-01-28T04:33:08.829Z,102559.22
2023-01-28T04:35:54.197Z,102559.06
2023-01-28T04:38:39.693Z,102567.38
2023-01-28T04:41:19.058Z,102565.16
2023-01-28T04:43:46.790Z,102564.66
2023-01-28T04:46:32.510Z,102556.44
2023-01-28T04:49:16.256Z,102560.34
2023-01-28T04:51:51.799Z,102556.06
2023-01-28T04:54:27.535Z,102565.84
2023-01-28T04:56:58.518Z,102558.56
2023-01-28T04:59:25.387Z,102558.91
2023-01-28T05:01:52.460Z,102565.97
2023-01-28T05:04:19.882Z,102556.19
2023-01-28T05:06:47.201Z,102568.63
2023-01-28T05:09:22.058Z,102568.41
2023-01-28T05:11:50.797Z,102561.59
2023-01-28T05:14:17.786Z,102572.66
2023-01-28T05:16:54.868Z,102562.06
2023-01-28T05:19:21.714Z,102566.16
2023-01-28T05:21:48.487Z,102566.16
2023-01-28T05:24:34.106Z,102571.94
2023-01-28T05:27:00.970Z,102565.22
2023-01-28T05:29:28.011Z,102561.38
2023-01-28T05:31:54.781Z,102564.19
2023-01-28T05:34:21.892Z,102572.91
2023-01-28T05:36:49.034Z,102562.09
2023-01-28T05:39:29.389Z,102558.19
2023-01-28T05:41:56.265Z,102567.59
2023-01-28T05:44:23.370Z,102563.59
2023-01-28T05:47:08.835Z,102562.94
2023-01-28T05:49:50.668Z,102567.94
2023-01-28T05:52:56.250Z,102570.91
2023-01-28T05:55:28.141Z,102573.44
2023-01-28T05:57:55.637Z,102570.03
2023-01-28T06:00:24.311Z,102569.16
2023-01-28T06:02:52.461Z,102576.84
2023-01-28T06:05:20.881Z,102580.16
2023-01-28T06:07:48.634Z,102570.06
2023-01-28T06:10:18.134Z,102576.13
2023-01-28T06:12:45.393Z,102581.19
2023-01-28T06:15:31.574Z,102584.00
2023-01-28T06:18:23.902Z,102584.81
2023-01-28T06:20:53.023Z,102583.41
2023-01-28T06:23:19.807Z,102585.88
2023-01-28T06:25:46.592Z,102586.72
2023-01-28T06:28:15.541Z,102594.31
2023-01-28T06:30:43.105Z,102606.91
2023-01-28T06:33:10.023Z,102603.31
2023-01-28T06:35:36.991Z,102602.53
2023-01-28T06:38:04.677Z,102596.44
2023-01-28T06:40:31.563Z,102606.41
2023-01-28T06:42:58.349Z,102601.78
2023-01-28T06:45:25.737Z,102612.84
2023-01-28T06:47:52.523Z,102608.75
2023-01-28T06:50:19.346Z,102612.72
2023-01-28T06:52:46.160Z,102609.06
2023-01-28T06:55:13.829Z,102604.75
2023-01-28T06:57:41.527Z,102606.22
2023-01-28T07:00:10.863Z,102599.38
2023-01-28T07:02:37.962Z,102609.97
2023-01-28T07:05:05.732Z,102607.56
2023-01-28T07:07:33.283Z,102607.19
2023-01-28T07:10:00.132Z,102614.91
2023-01-28T07:12:27.003Z,102610.91
2023-01-28T07:14:53.837Z,102607.84
2023-01-28T07:17:20.910Z,102619.09
2023-01-28T07:19:49.786Z,102614.88
2023-01-28T07:22:16.693Z,102610.44
2023-01-28T07:24:44.211Z,102611.47
2023-01-28T07:27:11.374Z,102614.13
2023-01-28T07:29:38.163Z,102616.84
2023-01-28T07:32:07.364Z,102607.34
2023-01-28T07:34:34.338Z,102608.91
2023-01-28T07:37:01.717Z,102611.22
2023-01-28T07:39:28.786Z,102613.38
2023-01-28T07:41:55.630Z,102606.16
2023-01-28T07:44:37.007Z,102605.16
2023-01-28T07:47:05.130Z,102625.59
2023-01-28T07:49:34.551Z,102630.91
2023-01-28T07:52:01.408Z,102633.56
2023-01-28T07:54:28.465Z,102640.56
2023-01-28T07:56:55.334Z,102635.75
2023-01-28T07:59:22.924Z,102637.34
2023-01-28T08:01:49.711Z,102637.22
2023-01-28T08:04:16.649Z,102639.38
2023-01-28T08:06:44.029Z,102639.34
2023-01-28T08:09:10.902Z,102640.06
2023-01-28T08:11:38.937Z,102637.84
2023-01-28T08:14:06.438Z,102649.09
2023-01-28T08:16:33.466Z,102653.56
2023-01-28T08:19:00.186Z,102650.09
2023-01-28T08:21:27.035Z,102654.81
2023-01-28T08:23:54.701Z,102658.75
2023-01-28T08:26:21.552Z,102652.78
2023-01-28T08:28:49.974Z,102657.75
2023-01-28T08:31:18.152Z,102657.81
2023-01-28T08:33:44.899Z,102665.53
2023-01-28T08:36:11.740Z,102661.06
2023-01-28T08:38:38.482Z,102652.50
2023-01-28T08:41:05.214Z,102656.16
2023-01-28T08:43:31.897Z,102665.69
2023-01-28T08:45:59.048Z,102668.53
2023-01-28T08:48:25.809Z,102680.63
2023-01-28T08:50:52.654Z,102684.38
2023-01-28T08:53:20.536Z,102684.66
2023-01-28T08:55:48.532Z,102686.94
2023-01-28T08:58:17.202Z,102680.47
2023-01-28T09:00:45.099Z,102689.97
2023-01-28T09:03:11.921Z,102704.41
2023-01-28T09:05:39.509Z,102709.25
2023-01-28T09:08:11.538Z,102708.59
2023-01-28T09:10:38.915Z,102697.25
2023-01-28T09:13:07.817Z,102707.78
2023-01-28T09:15:35.184Z,102715.09
2023-01-28T09:18:02.293Z,102708.63
2023-01-28T09:20:29.037Z,102706.38
2023-01-28T09:22:55.974Z,102703.25
2023-01-28T09:25:23.341Z,102709.75
2023-01-28T09:27:50.660Z,102710.59
2023-01-28T09:30:18.043Z,102703.44
2023-01-28T09:32:45.209Z,102715.59
2023-01-28T09:35:12.548Z,102715.63
2023-01-28T09:37:39.335Z,102720.19
2023-01-28T09:40:06.811Z,102720.69
2023-01-28T09:42:48.591Z,102732.00
2023-01-28T09:45:24.113Z,102730.28
2023-01-28T09:48:00.123Z,102731.78
2023-01-28T09:50:32.885Z,102720.53
2023-01-28T09:53:30.779Z,102732.97
2023-01-28T09:56:01.974Z,102720.69
2023-01-28T09:58:28.853Z,102726.38
2023-01-28T10:01:23.496Z,102733.97
2023-01-28T10:04:09.269Z,102730.78
2023-01-28T10:07:03.589Z,102733.44
2023-01-28T10:09:48.998Z,102726.09
2023-01-28T10:12:15.778Z,102733.75
2023-01-28T10:15:30.313Z,102735.09
2023-01-28T10:18:16.119Z,102736.72
2023-01-28T10:20:45.477Z,102737.75
2023-01-28T10:23:31.081Z,102735.25
2023-01-28T10:25:59.370Z,102735.34
2023-01-28T10:28:28.902Z,102731.09
2023-01-28T10:30:56.023Z,102735.66
2023-01-28T10:33:33.663Z,102731.53
2023-01-28T10:36:00.722Z,102725.06
2023-01-28T10:38:43.769Z,102735.13
2023-01-28T10:41:11.940Z,102741.63
2023-01-28T10:43:40.681Z,102738.56
2023-01-28T10:46:21.646Z,102750.81
2023-01-28T10:49:04.642Z,102737.72
2023-01-28T10:51:37.335Z,102755.63
2023-01-28T10:54:06.241Z,102753.59
2023-01-28T10:56:36.270Z,102747.06
2023-01-28T10:59:18.917Z,102746.31
2023-01-28T11:01:48.384Z,102752.91
2023-01-28T11:04:18.983Z,102745.75
2023-01-28T11:06:58.956Z,102730.59
2023-01-28T11:09:31.392Z,102749.81
2023-01-28T11:11:59.419Z,102743.44
2023-01-28T11:14:27.785Z,102745.69
2023-01-28T11:16:56.401Z,102733.56
2023-01-28T11:19:36.899Z,102749.78
2023-01-28T11:22:03.882Z,102740.66
2023-01-28T11:24:32.449Z,102745.91
2023-01-28T11:27:11.744Z,102731.94
2023-01-28T11:29:40.043Z,102731.59
2023-01-28T11:32:19.682Z,102730.13
2023-01-28T11:34:51.894Z,102731.38
2023-01-28T11:37:21.833Z,102738.47
2023-01-28T11:39:49.006Z,102740.72
2023-01-28T11:42:19.663Z,102743.63
2023-01-28T11:44:47.469Z,102739.44
2023-01-28T11:47:27.620Z,102744.84
2023-01-28T11:50:11.205Z,102746.66
2023-01-28T11:53:06.412Z,102734.03
2023-01-28T11:56:10.972Z,102721.19
2023-01-28T11:59:09.359Z,102723.06
2023-01-28T12:01:47.867Z,102725.41
2023-01-28T12:04:26.050Z,102718.13
2023-01-28T12:07:05.855Z,102708.72
2023-01-28T12:09:57.545Z,102700.34
2023-01-28T12:12:45.995Z,102691.41
2023-01-28T12:15:43.808Z,102679.50
2023-01-28T12:18:20.012Z,102679.16
2023-01-28T12:21:09.281Z,102673.84
2023-01-28T12:23:51.376Z,102672.31
2023-01-28T12:26:36.046Z,102658.22
2023-01-28T12:29:08.038Z,102658.81
2023-01-28T12:31:53.168Z,102659.53
2023-01-28T12:34:37.074Z,102660.13
2023-01-28T12:37:25.632Z,102640.56
2023-01-28T12:40:15.977Z,102641.59
2023-01-28T12:42:50.251Z,102640.84
2023-01-28T12:45:49.643Z,102625.88
2023-01-28T12:48:27.606Z,102615.31
2023-01-28T12:51:00.811Z,102599.00
2023-01-28T12:53:29.427Z,102611.63
2023-01-28T12:56:20.038Z,102604.03
2023-01-28T12:59:00.921Z,102629.00
2023-01-28T13:01:35.535Z,102634.09
2023-01-28T13:04:08.292Z,102620.47
2023-01-28T13:06:49.901Z,102625.38
2023-01-28T13:09:24.041Z,102609.66
2023-01-28T13:11:52.476Z,102612.06
2023-01-28T13:14:28.427Z,102616.78
2023-01-28T13:16:55.424Z,102623.88
2023-01-28T13:19:24.984Z,102639.63
2023-01-28T13:21:52.191Z,102646.81
2023-01-28T13:24:24.338Z,102633.81
2023-01-28T13:26:54.780Z,102638.09
2023-01-28T13:29:24.770Z,102653.38
2023-01-28T13:31:57.150Z,102651.47
2023-01-28T13:34:34.639Z,102650.88
2023-01-28T13:37:05.993Z,102655.47
2023-01-28T13:39:34.870Z,102654.41
2023-01-28T13:42:23.108Z,102655.09
2023-01-28T13:44:50.121Z,102661.16
2023-01-28T13:47:41.299Z,102664.22
2023-01-28T13:50:16.146Z,102652.31
2023-01-28T13:52:46.080Z,102655.97
2023-01-28T13:55:13.114Z,102658.91
2023-01-28T13:58:11.060Z,102666.41
2023-01-28T14:01:02.773Z,102670.13
2023-01-28T14:04:00.515Z,102665.38
2023-01-28T14:06:57.026Z,102643.53
2023-01-28T14:09:32.164Z,102648.59
2023-01-28T14:12:31.182Z,102660.63
2023-01-28T14:15:25.158Z,102642.47
2023-01-28T14:17:57.325Z,102642.56
2023-01-28T14:20:29.715Z,102632.19
2023-01-28T14:23:05.948Z,102618.66
2023-01-28T14:25:45.044Z,102631.56
2023-01-28T14:28:17.925Z,102633.88
2023-01-28T14:30:53.466Z,102628.09
2023-01-28T14:33:21.842Z,102626.69
2023-01-28T14:35:49.759Z,102626.84
2023-01-28T14:38:21.620Z,102627.75
2023-01-28T14:40:55.805Z,102611.22
2023-01-28T14:43:27.127Z,102602.31
2023-01-28T14:46:15.607Z,102613.00
2023-01-28T14:49:05.639Z,102611.88
2023-01-28T14:51:38.480Z,102617.00
2023-01-28T14:54:20.088Z,102615.75
2023-01-28T14:56:50.167Z,102622.47
2023-01-28T14:59:27.438Z,102634.59
2023-01-28T15:01:59.694Z,102635.56
2023-01-28T15:04:27.915Z,102641.69
2023-01-28T15:06:55.236Z,102629.34
2023-01-28T15:09:23.025Z,102624.91
2023-01-28T15:11:52.899Z,102626.22
2023-01-28T15:14:27.177Z,102639.53
2023-01-28T15:16:54.628Z,102643.56
2023-01-28T15:19:27.199Z,102652.88
2023-01-28T15:21:56.557Z,102657.19
2023-01-28T15:24:23.623Z,102634.53
2023-01-28T15:26:50.913Z,102647.44
2023-01-28T15:29:35.452Z,102658.09
2023-01-28T15:32:04.030Z,102668.00
2023-01-28T15:34:31.311Z,102655.88
2023-01-28T15:36:59.353Z,102656.69
2023-01-28T15:39:28.466Z,102647.44
2023-01-28T15:42:06.120Z,102649.03
2023-01-28T15:44:38.208Z,102643.56
2023-01-28T15:47:16.707Z,102643.34
2023-01-28T15:49:48.661Z,102637.00
2023-01-28T15:52:15.702Z,102637.31
2023-01-28T15:54:44.719Z,102628.78
2023-01-28T15:57:25.044Z,102632.19
2023-01-28T15:59:51.896Z,102635.84
2023-01-28T16:02:23.973Z,102636.44
2023-01-28T16:05:01.635Z,102641.91
2023-01-28T16:07:31.831Z,102647.78
2023-01-28T16:10:00.188Z,102657.38
2023-01-28T16:12:27.406Z,102672.47
2023-01-28T16:14:59.434Z,102676.31
2023-01-28T16:17:39.232Z,102674.94
2023-01-28T16:20:08.955Z,102697.53
2023-01-28T16:22:37.873Z,102685.13
2023-01-28T16:25:31.479Z,102704.97
2023-01-28T16:27:59.545Z,102703.81
2023-01-28T16:30:26.903Z,102703.25
2023-01-28T16:32:55.753Z,102705.72
2023-01-28T16:35:28.471Z,102718.63
2023-01-28T16:37:58.686Z,102721.56
2023-01-28T16:40:26.835Z,102724.00
2023-01-28T16:42:55.765Z,102728.81
2023-01-28T16:45:24.402Z,102716.16
2023-01-28T16:47:52.360Z,102731.84
2023-01-28T16:50:22.160Z,102725.53
2023-01-28T16:52:51.261Z,102720.56
2023-01-28T16:55:20.069Z,102706.09
2023-01-28T16:57:50.447Z,102704.00
2023-01-28T17:00:18.553Z,102707.72
2023-01-28T17:02:45.605Z,102696.56
2023-01-28T17:05:13.544Z,102678.84
2023-01-28T17:07:42.569Z,102698.19
2023-01-28T17:10:10.169Z,102697.84
2023-01-28T17:12:36.897Z,102706.19
2023-01-28T17:15:04.174Z,102705.72
2023-01-28T17:17:31.258Z,102711.38
2023-01-28T17:19:58.029Z,102706.28
2023-01-28T17:22:24.915Z,102702.13
2023-01-28T17:24:52.212Z,102696.56
2023-01-28T17:27:19.336Z,102700.25
2023-01-28T17:29:46.414Z,102726.88
2023-01-28T17:32:13.758Z,102728.59
2023-01-28T17:34:40.754Z,102730.47
2023-01-28T17:37:07.546Z,102720.84
2023-01-28T17:39:34.801Z,102702.03
2023-01-28T17:42:01.845Z,102713.97
2023-01-28T17:44:38.678Z,102722.19
2023-01-28T17:47:09.890Z,102709.72
2023-01-28T17:49:41.959Z,102703.50
2023-01-28T17:52:09.226Z,102712.41
2023-01-28T17:54:36.274Z,102704.31
2023-01-28T17:57:03.124Z,102712.22
2023-01-28T17:59:30.507Z,102717.88
2023-01-28T18:01:58.023Z,102721.56
2023-01-28T18:04:25.737Z,102726.72
2023-01-28T18:06:52.922Z,102726.81
2023-01-28T18:09:21.442Z,102738.19
2023-01-28T18:11:49.133Z,102722.13
2023-01-28T18:14:16.105Z,102712.47
2023-01-28T18:16:43.221Z,102716.25
2023-01-28T18:19:10.614Z,102722.69
2023-01-28T18:21:53.016Z,102712.69
2023-01-28T18:24:21.580Z,102711.59
2023-01-28T18:26:48.740Z,102718.31
2023-01-28T18:29:20.448Z,102731.50
2023-01-28T18:31:48.416Z,102732.00
2023-01-28T18:34:15.582Z,102732.09
2023-01-28T18:36:42.706Z,102738.41
2023-01-28T18:39:13.825Z,102736.91
2023-01-28T18:41:40.966Z,102750.38
2023-01-28T18:44:14.492Z,102760.13
2023-01-28T18:46:45.593Z,102760.00
2023-01-28T18:49:13.031Z,102754.25
2023-01-28T18:51:41.126Z,102764.31
2023-01-28T18:54:23.378Z,102769.25
2023-01-28T18:56:53.137Z,102783.84
2023-01-28T18:59:20.243Z,102770.88
2023-01-28T19:01:48.106Z,102790.19
2023-01-28T19:04:15.960Z,102775.22
2023-01-28T19:06:43.188Z,102786.53
2023-01-28T19:09:11.178Z,102782.34
2023-01-28T19:11:38.618Z,102779.19
2023-01-28T19:14:06.306Z,102789.13
2023-01-28T19:16:40.426Z,102778.75
2023-01-28T19:19:07.446Z,102783.84
2023-01-28T19:21:37.835Z,102778.38
2023-01-28T19:24:07.164Z,102782.81
2023-01-28T19:26:34.133Z,102787.84
2023-01-28T19:29:01.862Z,102788.41
2023-01-28T19:31:34.971Z,102784.66
2023-01-28T19:34:02.281Z,102779.16
2023-01-28T19:36:31.236Z,102776.94
2023-01-28T19:39:02.419Z,102773.22
2023-01-28T19:41:29.871Z,102767.63
2023-01-28T19:43:57.137Z,102763.97
2023-01-28T19:46:24.655Z,102757.09
2023-01-28T19:48:51.640Z,102750.06
2023-01-28T19:51:18.777Z,102737.06
2023-01-28T19:53:45.906Z,102753.66
2023-01-28T19:56:14.804Z,102758.72
2023-01-28T19:58:43.523Z,102758.47
2023-01-28T20:01:22.495Z,102764.75
2023-01-28T20:04:00.044Z,102772.06
2023-01-28T20:06:28.859Z,102765.91
2023-01-28T20:08:58.531Z,102767.41
2023-01-28T20:11:25.699Z,102773.25
2023-01-28T20:13:55.689Z,102770.28
2023-01-28T20:16:27.601Z,102768.69
2023-01-28T20:18:56.032Z,102766.00
2023-01-28T20:21:23.640Z,102767.28
2023-01-28T20:23:52.580Z,102768.09
2023-01-28T20:26:21.841Z,102774.06
2023-01-28T20:28:50.338Z,102769.91
2023-01-28T20:31:18.197Z,102768.53
2023-01-28T20:33:45.348Z,102770.47
2023-01-28T20:36:13.298Z,102764.59
2023-01-28T20:38:47.270Z,102760.97
2023-01-28T20:41:16.531Z,102760.88
2023-01-28T20:43:44.684Z,102762.38
2023-01-28T20:46:14.211Z,102752.78
2023-01-28T20:48:41.401Z,102751.13
2023-01-28T20:51:12.440Z,102738.59
2023-01-28T20:53:39.783Z,102746.19
2023-01-28T20:56:09.342Z,102748.53
2023-01-28T20:58:36.796Z,102748.34
2023-01-28T21:01:04.861Z,102745.25
2023-01-28T21:03:32.528Z,102739.22
2023-01-28T21:06:00.868Z,102749.72
2023-01-28T21:08:27.559Z,102745.06
2023-01-28T21:10:55.227Z,102745.00
2023-01-28T21:13:22.089Z,102738.38
2023-01-28T21:15:54.457Z,102734.34
2023-01-28T21:18:21.908Z,102739.19
2023-01-28T21:20:49.404Z,102743.13
2023-01-28T21:23:16.579Z,102739.13
2023-01-28T21:25:46.737Z,102742.03
2023-01-28T21:28:17.544Z,102748.28
2023-01-28T21:30:45.679Z,102750.75
2023-01-28T21:33:17.414Z,102749.53
2023-01-28T21:35:45.015Z,102740.78
2023-01-28T21:38:12.469Z,102747.06
2023-01-28T21:40:39.777Z,102750.41
2023-01-28T21:43:07.222Z,102745.44
2023-01-28T21:45:34.330Z,102739.72
2023-01-28T21:48:01.426Z,102740.28
2023-01-28T21:50:28.583Z,102720.59
2023-01-28T21:52:55.520Z,102741.75
2023-01-28T21:55:23.233Z,102741.59
2023-01-28T21:58:10.253Z,102735.81
2023-01-28T22:00:37.955Z,102740.59
2023-01-28T22:03:05.038Z,102740.28
2023-01-28T22:05:32.182Z,102732.69
2023-01-28T22:07:59.374Z,102741.31
2023-01-28T22:10:26.526Z,102744.66
2023-01-28T22:12:53.564Z,102747.16
2023-01-28T22:15:20.791Z,102746.94
2023-01-28T22:17:47.651Z,102744.00
2023-01-28T22:20:15.139Z,102746.16
2023-01-28T22:22:42.504Z,102743.56
2023-01-28T22:25:10.072Z,102737.81
2023-01-28T22:27:37.085Z,102731.97
2023-01-28T22:30:05.072Z,102738.13
2023-01-28T22:32:32.095Z,102747.84
2023-01-28T22:35:00.393Z,102740.50
2023-01-28T22:37:29.456Z,102747.84
2023-01-28T22:39:56.796Z,102767.53
2023-01-28T22:42:24.131Z,102759.88
2023-01-28T22:44:51.225Z,102766.00
2023-01-28T22:47:18.331Z,102770.56
2023-01-28T22:49:45.339Z,102764.91
2023-01-28T22:52:12.750Z,102759.72
2023-01-28T22:54:43.422Z,102766.00
2023-01-28T22:57:11.804Z,102757.25
2023-01-28T22:59:41.888Z,102750.72
2023-01-28T23:02:10.767Z,102742.78
2023-01-28T23:04:37.799Z,102741.34
2023-01-28T23:07:05.429Z,102737.63
2023-01-28T23:09:32.208Z,102738.47
2023-01-28T23:11:59.151Z,102733.03
2023-01-28T23:14:44.630Z,102738.38
2023-01-28T23:17:30.054Z,102735.00
2023-01-28T23:20:15.778Z,102738.69
2023-01-28T23:23:01.315Z,102733.19
2023-01-28T23:25:28.520Z,102749.41
2023-01-28T23:27:55.805Z,102729.66
2023-01-28T23:30:25.638Z,102729.63
2023-01-28T23:32:56.069Z,102739.44
2023-01-28T23:35:26.070Z,102718.34
2023-01-28T23:37:54.273Z,102721.22
2023-01-28T23:40:24.459Z,102721.97
2023-01-28T23:42:51.632Z,102720.88
2023-01-28T23:45:18.561Z,102702.91
2023-01-28T23:47:45.257Z,102703.78
2023-01-28T23:50:12.120Z,102695.47
2023-01-28T23:52:38.988Z,102696.59
2023-01-28T23:55:06.338Z,102696.25
2023-01-28T23:57:33.779Z,102696.06
